createdAt,value
2022-09-16T00:01:16.377Z,6.97
2022-09-16T00:03:47.232Z,7.03
2022-09-16T00:06:20.161Z,10.98
2022-09-16T00:08:49.461Z,11.05
2022-09-16T00:11:18.650Z,7.97
2022-09-16T00:13:47.903Z,7.50
2022-09-16T00:16:20.632Z,10.35
2022-09-16T00:18:48.685Z,6.67
2022-09-16T00:21:17.151Z,8.70
2022-09-16T00:23:44.855Z,7.83
2022-09-16T00:26:12.741Z,9.83
2022-09-16T00:28:40.555Z,8.65
2022-09-16T00:31:08.483Z,7.55
2022-09-16T00:33:36.224Z,5.92
2022-09-16T00:36:13.976Z,7.55
2022-09-16T00:38:42.472Z,5.55
2022-09-16T00:41:17.827Z,11.50
2022-09-16T00:43:53.105Z,5.78
2022-09-16T00:46:41.194Z,5.67
2022-09-16T00:49:28.043Z,6.50
2022-09-16T00:52:01.391Z,6.80
2022-09-16T00:54:30.722Z,5.05
2022-09-16T00:57:00.173Z,6.17
2022-09-16T00:59:34.216Z,8.28
2022-09-16T01:02:06.450Z,5.80
2022-09-16T01:04:45.189Z,10.15
2022-09-16T01:07:13.314Z,6.95
2022-09-16T01:09:42.826Z,6.28
2022-09-16T01:12:10.106Z,6.25
2022-09-16T01:14:52.958Z,7.22
2022-09-16T01:17:37.967Z,7.17
2022-09-16T01:20:37.124Z,5.72
2022-09-16T01:23:43.201Z,8.95
2022-09-16T01:26:40.378Z,6.15
2022-09-16T01:29:56.763Z,9.13
2022-09-16T01:32:33.179Z,4.97
2022-09-16T01:35:41.473Z,6.60
2022-09-16T01:38:44.557Z,9.70
2022-09-16T01:41:40.910Z,9.17
2022-09-16T01:44:35.622Z,6.22
2022-09-16T01:47:19.467Z,5.67
2022-09-16T01:50:01.639Z,6.08
2022-09-16T01:52:40.753Z,9.20
2022-09-16T01:55:19.583Z,6.30
2022-09-16T01:58:01.541Z,6.45
2022-09-16T02:00:31.287Z,6.78
2022-09-16T02:03:19.014Z,4.92
2022-09-16T02:05:53.984Z,7.37
2022-09-16T02:08:35.149Z,7.67
2022-09-16T02:11:14.820Z,6.53
2022-09-16T02:14:00.937Z,6.60
2022-09-16T02:16:44.951Z,6.12
2022-09-16T02:19:27.030Z,4.70
2022-09-16T02:21:57.475Z,6.40
2022-09-16T02:24:33.275Z,6.95
2022-09-16T02:27:14.363Z,5.20
2022-09-16T02:30:00.704Z,6.58
2022-09-16T02:32:31.739Z,8.65
2022-09-16T02:35:01.942Z,5.62
2022-09-16T02:37:43.984Z,3.20
2022-09-16T02:40:16.555Z,7.45
2022-09-16T02:42:44.415Z,5.13
2022-09-16T02:45:12.725Z,5.75
2022-09-16T02:48:04.010Z,8.83
2022-09-16T02:50:52.489Z,9.60
2022-09-16T02:53:46.375Z,5.87
2022-09-16T02:56:22.533Z,5.70
2022-09-16T02:58:51.134Z,5.10
2022-09-16T03:01:22.299Z,7.53
2022-09-16T03:03:53.025Z,4.50
2022-09-16T03:06:24.832Z,4.42
2022-09-16T03:08:55.858Z,4.83
2022-09-16T03:12:11.636Z,6.83
2022-09-16T03:15:31.947Z,6.58
2022-09-16T03:18:16.962Z,10.08
2022-09-16T03:20:52.889Z,7.92
2022-09-16T03:23:48.887Z,5.30
2022-09-16T03:26:48.185Z,4.78
2022-09-16T03:29:39.810Z,4.40
2022-09-16T03:32:34.202Z,3.67
2022-09-16T03:35:10.493Z,4.42
2022-09-16T03:37:40.933Z,5.85
2022-09-16T03:40:13.600Z,4.35
2022-09-16T03:42:43.376Z,4.37
2022-09-16T03:45:20.801Z,2.70
2022-09-16T03:47:52.008Z,4.75
2022-09-16T03:50:20.931Z,8.23
2022-09-16T03:52:48.888Z,4.78
2022-09-16T03:55:16.748Z,3.80
2022-09-16T03:57:44.258Z,3.42
2022-09-16T04:00:12.713Z,6.85
2022-09-16T04:02:40.175Z,4.45
2022-09-16T04:05:09.076Z,5.65
2022-09-16T04:07:36.806Z,6.97
2022-09-16T04:10:06.753Z,7.35
2022-09-16T04:12:34.698Z,3.33
2022-09-16T04:15:02.328Z,5.20
2022-09-16T04:17:32.612Z,5.87
2022-09-16T04:20:00.542Z,9.28
2022-09-16T04:22:30.365Z,7.40
2022-09-16T04:24:58.043Z,5.72
2022-09-16T04:27:25.720Z,6.15
2022-09-16T04:29:52.961Z,9.03
2022-09-16T04:32:20.981Z,6.85
2022-09-16T04:34:48.547Z,5.87
2022-09-16T04:37:16.051Z,7.42
2022-09-16T04:39:43.552Z,3.58
2022-09-16T04:42:12.072Z,8.38
2022-09-16T04:44:40.136Z,6.90
2022-09-16T04:47:07.770Z,5.08
2022-09-16T04:49:35.440Z,5.33
2022-09-16T04:52:03.182Z,3.55
2022-09-16T04:54:30.814Z,3.65
2022-09-16T04:56:58.287Z,3.72
2022-09-16T04:59:25.560Z,6.00
2022-09-16T05:01:53.198Z,6.60
2022-09-16T05:04:20.926Z,7.15
2022-09-16T05:06:48.623Z,4.45
2022-09-16T05:09:16.293Z,3.77
2022-09-16T05:11:44.246Z,2.47
2022-09-16T05:14:16.077Z,3.75
2022-09-16T05:16:44.719Z,5.40
2022-09-16T05:19:13.833Z,4.10
2022-09-16T05:21:42.058Z,3.67
2022-09-16T05:24:14.038Z,2.70
2022-09-16T05:26:43.321Z,4.55
2022-09-16T05:29:15.212Z,4.47
2022-09-16T05:31:46.793Z,3.98
2022-09-16T05:34:18.593Z,5.20
2022-09-16T05:36:47.482Z,7.42
2022-09-16T05:39:23.366Z,2.80
2022-09-16T05:41:48.340Z,6.33
2022-09-16T05:44:15.969Z,4.15
2022-09-16T05:46:43.711Z,6.80
2022-09-16T05:49:11.920Z,1.87
2022-09-16T05:51:41.006Z,2.47
2022-09-16T05:54:08.736Z,2.65
2022-09-16T05:56:36.663Z,2.52
2022-09-16T05:59:04.681Z,3.40
2022-09-16T06:01:35.189Z,3.58
2022-09-16T06:04:06.126Z,3.80
2022-09-16T06:06:42.777Z,3.60
2022-09-16T06:09:18.254Z,3.45
2022-09-16T06:11:49.190Z,4.87
2022-09-16T06:14:22.102Z,4.10
2022-09-16T06:16:50.698Z,4.33
2022-09-16T06:19:19.418Z,2.45
2022-09-16T06:21:47.515Z,2.98
2022-09-16T06:24:18.338Z,2.22
2022-09-16T06:26:47.991Z,3.05
2022-09-16T06:29:17.144Z,2.52
2022-09-16T06:31:44.836Z,3.40
2022-09-16T06:34:15.911Z,2.02
2022-09-16T06:36:45.313Z,2.83
2022-09-16T06:39:15.645Z,4.28
2022-09-16T06:41:45.499Z,1.52
2022-09-16T06:44:13.382Z,1.65
2022-09-16T06:46:41.454Z,2.83
2022-09-16T06:49:10.432Z,13.58
2022-09-16T06:51:37.959Z,5.15
2022-09-16T06:54:08.752Z,1.70
2022-09-16T06:56:39.160Z,2.83
2022-09-16T06:59:08.749Z,2.58
2022-09-16T07:01:37.071Z,2.52
2022-09-16T07:04:13.075Z,3.17
2022-09-16T07:09:10.679Z,6.37
2022-09-16T07:11:40.197Z,1.72
2022-09-16T07:14:09.168Z,2.22
2022-09-16T07:16:36.865Z,1.62
2022-09-16T07:19:05.060Z,1.95
2022-09-16T07:21:33.176Z,2.95
2022-09-16T07:24:02.896Z,1.30
2022-09-16T07:26:34.389Z,1.35
2022-09-16T07:29:05.075Z,2.02
2022-09-16T07:31:36.680Z,1.87
2022-09-16T07:34:07.184Z,1.20
2022-09-16T07:36:45.253Z,1.95
2022-09-16T07:39:15.345Z,2.10
2022-09-16T07:41:45.544Z,1.87
2022-09-16T07:44:16.282Z,1.85
2022-09-16T07:46:44.124Z,3.92
2022-09-16T07:49:14.053Z,1.35
2022-09-16T07:51:42.619Z,2.90
2022-09-16T07:54:14.425Z,3.80
2022-09-16T07:56:43.799Z,2.25
2022-09-16T07:59:18.610Z,1.20
2022-09-16T08:01:45.555Z,2.10
2022-09-16T08:04:13.352Z,16.93
2022-09-16T08:06:41.169Z,5.00
2022-09-16T08:09:27.184Z,27.25
2022-09-16T08:11:38.294Z,24.82
2022-09-16T08:14:06.331Z,7.90
2022-09-16T08:16:33.932Z,1.92
2022-09-16T08:19:01.717Z,4.47
2022-09-16T08:21:29.462Z,4.35
2022-09-16T08:23:57.794Z,7.12
2022-09-16T08:26:26.882Z,2.95
2022-09-16T08:29:10.538Z,41.18
2022-09-16T08:31:23.793Z,9.00
2022-09-16T08:33:51.420Z,2.55
2022-09-16T08:36:22.344Z,2.50
2022-09-16T08:38:54.162Z,1.40
2022-09-16T08:41:54.766Z,3.20
2022-09-16T08:44:45.981Z,2.20
2022-09-16T08:47:35.881Z,1.22
2022-09-16T08:50:08.992Z,2.60
2022-09-16T08:55:25.233Z,1.22
2022-09-16T08:58:13.075Z,1.92
2022-09-16T09:00:43.669Z,2.55
2022-09-16T09:03:37.384Z,2.02
2022-09-16T09:09:27.140Z,2.63
2022-09-16T09:12:14.707Z,1.52
2022-09-16T09:15:36.042Z,1.92
2022-09-16T09:18:18.447Z,1.98
2022-09-16T09:21:06.599Z,2.60
2022-09-16T09:24:17.858Z,1.10
2022-09-16T09:27:00.514Z,1.90
2022-09-16T09:29:53.659Z,1.10
2022-09-16T09:32:49.823Z,2.27
2022-09-16T09:35:54.636Z,1.47
2022-09-16T09:39:03.122Z,1.22
2022-09-16T09:41:44.993Z,1.02
2022-09-16T09:44:36.416Z,7.95
2022-09-16T09:47:09.419Z,23.87
2022-09-16T09:49:46.267Z,8.23
2022-09-16T09:52:28.432Z,2.12
2022-09-16T09:55:01.146Z,2.45
2022-09-16T09:57:40.338Z,5.33
2022-09-16T10:00:16.361Z,1.52
2022-09-16T10:02:49.591Z,1.45
2022-09-16T10:05:25.944Z,1.85
2022-09-16T10:07:57.969Z,1.77
2022-09-16T10:10:29.750Z,3.20
2022-09-16T10:13:10.787Z,1.92
2022-09-16T10:15:40.416Z,1.20
2022-09-16T10:18:30.150Z,2.25
2022-09-16T10:21:14.601Z,4.28
2022-09-16T10:23:54.138Z,1.95
2022-09-16T10:26:27.613Z,1.07
2022-09-16T10:29:19.072Z,1.12
2022-09-16T10:31:47.424Z,2.45
2022-09-16T10:34:29.684Z,1.87
2022-09-16T10:37:05.695Z,1.47
2022-09-16T10:39:34.039Z,0.95
2022-09-16T10:42:02.849Z,1.77
2022-09-16T10:44:33.415Z,1.40
2022-09-16T10:47:08.909Z,3.30
2022-09-16T10:49:50.263Z,1.95
2022-09-16T10:52:25.812Z,1.30
2022-09-16T10:54:54.626Z,2.62
2022-09-16T10:57:30.029Z,2.20
2022-09-16T11:00:04.991Z,2.00
2022-09-16T11:03:01.923Z,0.98
2022-09-16T11:05:40.583Z,1.55
2022-09-16T11:08:42.770Z,4.53
2022-09-16T11:11:44.716Z,1.02
2022-09-16T11:14:23.751Z,1.22
2022-09-16T11:17:02.780Z,1.40
2022-09-16T11:19:54.359Z,2.77
2022-09-16T11:22:35.692Z,1.75
2022-09-16T11:25:30.204Z,1.52
2022-09-16T11:28:20.192Z,2.67
2022-09-16T11:31:15.512Z,1.07
2022-09-16T11:34:19.005Z,1.42
2022-09-16T11:36:55.510Z,1.95
2022-09-16T11:39:57.535Z,2.85
2022-09-16T11:42:46.306Z,2.40
2022-09-16T11:45:31.719Z,1.32
2022-09-16T11:48:24.271Z,1.80
2022-09-16T11:51:09.630Z,2.50
2022-09-16T11:54:02.809Z,4.42
2022-09-16T11:56:53.142Z,2.45
2022-09-16T11:59:47.392Z,5.35
2022-09-16T12:02:41.660Z,1.52
2022-09-16T12:05:26.502Z,2.42
2022-09-16T12:08:16.609Z,1.47
2022-09-16T12:10:54.278Z,1.40
2022-09-16T12:13:30.668Z,3.37
2022-09-16T12:16:06.137Z,1.82
2022-09-16T12:18:43.894Z,3.35
2022-09-16T12:21:22.587Z,4.97
2022-09-16T12:23:57.125Z,8.28
2022-09-16T12:26:32.745Z,11.68
2022-09-16T12:29:20.489Z,11.65
2022-09-16T12:32:05.567Z,3.25
2022-09-16T12:34:54.991Z,3.00
2022-09-16T12:37:33.779Z,1.50
2022-09-16T12:40:03.078Z,2.27
2022-09-16T12:43:03.529Z,3.80
2022-09-16T12:46:05.943Z,1.27
2022-09-16T12:48:50.415Z,2.65
2022-09-16T12:51:35.151Z,5.78
2022-09-16T12:54:11.050Z,2.47
2022-09-16T12:57:10.860Z,2.77
2022-09-16T12:59:52.612Z,2.55
2022-09-16T13:02:25.721Z,3.83
2022-09-16T13:04:57.704Z,3.60
2022-09-16T13:07:34.866Z,3.80
2022-09-16T13:10:17.299Z,2.75
2022-09-16T13:12:51.433Z,4.95
2022-09-16T13:15:36.682Z,3.47
2022-09-16T13:18:26.473Z,7.37
2022-09-16T13:21:00.300Z,3.90
2022-09-16T13:23:33.943Z,4.08
2022-09-16T13:26:08.977Z,6.45
2022-09-16T13:28:41.246Z,3.70
2022-09-16T13:31:18.175Z,3.27
2022-09-16T13:34:03.935Z,3.80
2022-09-16T13:36:34.393Z,4.62
2022-09-16T13:39:08.072Z,2.90
2022-09-16T13:41:47.387Z,3.77
2022-09-16T13:44:41.606Z,3.72
2022-09-16T13:47:14.149Z,6.67
2022-09-16T13:50:12.999Z,6.10
2022-09-16T13:52:42.108Z,5.22
2022-09-16T13:55:23.854Z,9.98
2022-09-16T13:58:14.532Z,8.70
2022-09-16T14:01:14.840Z,9.28
2022-09-16T14:04:27.521Z,5.10
2022-09-16T14:07:24.600Z,5.83
2022-09-16T14:10:15.844Z,4.45
2022-09-16T14:13:21.856Z,4.75
2022-09-16T14:15:53.899Z,2.85
2022-09-16T14:18:26.980Z,5.00
2022-09-16T14:21:04.977Z,3.50
2022-09-16T14:23:33.695Z,4.17
2022-09-16T14:26:18.223Z,4.12
2022-09-16T14:28:46.351Z,3.30
2022-09-16T14:31:20.367Z,5.17
2022-09-16T14:33:56.717Z,5.62
2022-09-16T14:36:32.639Z,5.70
2022-09-16T14:39:11.438Z,5.87
2022-09-16T14:41:44.281Z,5.17
2022-09-16T14:44:20.417Z,5.10
2022-09-16T14:47:00.257Z,3.52
2022-09-16T14:49:23.720Z,5.97
2022-09-16T14:51:59.138Z,4.05
2022-09-16T14:54:27.970Z,5.15
2022-09-16T14:57:12.487Z,4.85
2022-09-16T14:59:44.277Z,4.80
2022-09-16T15:02:44.280Z,30.77
2022-09-16T15:05:37.367Z,7.10
2022-09-16T15:08:36.596Z,6.30
2022-09-16T15:11:24.506Z,6.90
2022-09-16T15:13:43.977Z,7.67
2022-09-16T15:16:15.897Z,7.20
2022-09-16T15:18:57.192Z,9.53
2022-09-16T15:21:34.515Z,9.20
2022-09-16T15:24:05.662Z,10.18
2022-09-16T15:26:43.571Z,11.70
2022-09-16T15:29:25.737Z,10.90
2022-09-16T15:31:54.427Z,10.43
2022-09-16T15:34:23.995Z,10.13
2022-09-16T15:36:57.067Z,9.18
2022-09-16T15:39:30.019Z,10.08
2022-09-16T15:42:26.034Z,8.73
2022-09-16T15:44:57.305Z,13.95
2022-09-16T15:47:28.607Z,11.30
2022-09-16T15:50:15.679Z,7.15
2022-09-16T15:53:10.013Z,7.70
2022-09-16T15:55:45.960Z,9.53
2022-09-16T15:58:24.897Z,6.17
2022-09-16T16:01:26.720Z,7.20
2022-09-16T16:04:00.861Z,5.58
2022-09-16T16:06:57.289Z,6.08
2022-09-16T16:09:32.367Z,7.95
2022-09-16T16:12:07.985Z,10.30
2022-09-16T16:14:37.885Z,33.80
2022-09-16T16:17:20.889Z,14.60
2022-09-16T16:19:50.270Z,15.55
2022-09-16T16:22:19.996Z,23.60
2022-09-16T16:24:47.629Z,12.47
2022-09-16T16:27:15.278Z,11.73
2022-09-16T16:29:42.882Z,10.45
2022-09-16T16:32:13.974Z,7.28
2022-09-16T16:34:45.312Z,12.37
2022-09-16T16:37:40.214Z,14.93
2022-09-16T16:39:45.759Z,29.80
2022-09-16T16:42:15.259Z,14.28
2022-09-16T16:44:43.348Z,8.23
2022-09-16T16:47:11.344Z,10.75
2022-09-16T16:49:39.846Z,9.50
2022-09-16T16:52:08.445Z,11.05
2022-09-16T16:54:37.272Z,21.50
2022-09-16T16:57:04.903Z,10.03
2022-09-16T16:59:32.437Z,10.70
2022-09-16T17:01:59.816Z,26.87
2022-09-16T17:04:27.384Z,48.28
2022-09-16T17:07:21.330Z,48.48
2022-09-16T17:09:24.122Z,37.08
2022-09-16T17:11:58.254Z,13.95
2022-09-16T17:14:29.300Z,10.78
2022-09-16T17:16:57.425Z,8.40
2022-09-16T17:19:26.493Z,8.00
2022-09-16T17:21:55.132Z,10.75
2022-09-16T17:24:22.580Z,11.38
2022-09-16T17:26:50.175Z,11.18
2022-09-16T17:29:17.629Z,10.70
2022-09-16T17:31:45.794Z,7.70
2022-09-16T17:34:15.684Z,9.95
2022-09-16T17:36:46.295Z,8.75
2022-09-16T17:39:18.507Z,11.18
2022-09-16T17:41:48.269Z,7.80
2022-09-16T17:44:17.943Z,9.95
2022-09-16T17:46:47.043Z,11.20
2022-09-16T17:49:18.075Z,11.22
2022-09-16T17:51:45.981Z,8.85
2022-09-16T17:54:13.833Z,10.75
2022-09-16T17:56:42.391Z,9.28
2022-09-16T17:59:12.666Z,12.82
2022-09-16T18:01:41.165Z,21.48
2022-09-16T18:04:08.794Z,17.95
2022-09-16T18:06:45.343Z,15.23
2022-09-16T18:09:15.795Z,16.30
2022-09-16T18:11:44.561Z,13.58
2022-09-16T18:14:13.760Z,12.88
2022-09-16T18:16:41.923Z,14.40
2022-09-16T18:19:09.839Z,11.93
2022-09-16T18:21:37.926Z,13.35
2022-09-16T18:24:10.685Z,14.93
2022-09-16T18:26:40.159Z,17.55
2022-09-16T18:29:11.537Z,14.43
2022-09-16T18:31:43.870Z,13.08
2022-09-16T18:34:12.663Z,14.30
2022-09-16T18:36:40.585Z,12.37
2022-09-16T18:39:15.164Z,11.70
2022-09-16T18:41:44.955Z,10.72
2022-09-16T18:44:23.180Z,11.97
2022-09-16T18:46:52.676Z,10.43
2022-09-16T18:49:25.907Z,10.98
2022-09-16T18:54:28.397Z,10.98
2022-09-16T18:56:59.354Z,16.02
2022-09-16T18:59:30.362Z,13.10
2022-09-16T19:02:00.580Z,16.12
2022-09-16T19:04:31.923Z,20.23
2022-09-16T19:07:09.536Z,19.62
2022-09-16T19:09:42.018Z,18.27
2022-09-16T19:12:12.363Z,15.30
2022-09-16T19:14:40.662Z,15.65
2022-09-16T19:17:09.125Z,12.60
2022-09-16T19:19:36.521Z,12.18
2022-09-16T19:22:05.239Z,12.40
2022-09-16T19:24:33.939Z,12.03
2022-09-16T19:27:01.430Z,12.90
2022-09-16T19:29:28.994Z,15.40
2022-09-16T19:31:56.808Z,12.23
2022-09-16T19:34:24.533Z,11.75
2022-09-16T19:36:52.058Z,10.98
2022-09-16T19:39:20.677Z,13.45
2022-09-16T19:41:48.173Z,16.50
2022-09-16T19:44:17.600Z,11.38
2022-09-16T19:46:48.006Z,13.68
2022-09-16T19:49:20.459Z,11.93
2022-09-16T19:51:49.323Z,10.17
2022-09-16T19:54:17.840Z,10.45
2022-09-16T19:56:50.194Z,12.50
2022-09-16T19:59:15.380Z,9.43
2022-09-16T20:01:43.306Z,13.45
2022-09-16T20:04:10.687Z,13.05
2022-09-16T20:06:41.143Z,11.88
2022-09-16T20:09:12.425Z,11.63
2022-09-16T20:11:44.134Z,10.93
2022-09-16T20:14:18.753Z,12.40
2022-09-16T20:16:48.210Z,12.00
2022-09-16T20:19:18.255Z,9.73
2022-09-16T20:21:46.025Z,10.35
2022-09-16T20:24:17.696Z,9.50
2022-09-16T20:26:47.708Z,11.50
2022-09-16T20:29:16.864Z,9.48
2022-09-16T20:31:45.550Z,8.15
2022-09-16T20:34:15.708Z,10.43
2022-09-16T20:36:44.937Z,9.03
2022-09-16T20:39:13.558Z,11.73
2022-09-16T20:41:41.970Z,12.50
2022-09-16T20:44:15.162Z,10.90
2022-09-16T20:49:15.364Z,13.13
2022-09-16T20:51:43.828Z,12.10
2022-09-16T20:54:14.415Z,10.98
2022-09-16T20:56:45.725Z,12.70
2022-09-16T20:59:15.955Z,11.50
2022-09-16T21:01:44.215Z,11.38
2022-09-16T21:04:16.413Z,9.93
2022-09-16T21:06:44.978Z,15.20
2022-09-16T21:09:15.316Z,9.78
2022-09-16T21:11:45.872Z,11.03
2022-09-16T21:14:15.782Z,13.08
2022-09-16T21:16:46.466Z,10.90
2022-09-16T21:19:14.646Z,12.03
2022-09-16T21:21:45.732Z,11.48
2022-09-16T21:24:14.479Z,14.68
2022-09-16T21:26:43.487Z,12.95
2022-09-16T21:29:15.474Z,13.72
2022-09-16T21:31:43.559Z,13.32
2022-09-16T21:34:18.135Z,13.50
2022-09-16T21:36:47.104Z,12.33
2022-09-16T21:39:15.960Z,13.40
2022-09-16T21:41:46.118Z,10.08
2022-09-16T21:44:14.555Z,8.68
2022-09-16T21:46:45.696Z,8.08
2022-09-16T21:49:28.332Z,9.60
2022-09-16T21:54:27.444Z,8.10
2022-09-16T21:56:55.366Z,10.40
2022-09-16T21:59:23.156Z,11.53
2022-09-16T22:01:52.174Z,12.00
2022-09-16T22:04:23.212Z,10.88
2022-09-16T22:06:54.373Z,11.03
2022-09-16T22:09:22.603Z,11.20
2022-09-16T22:11:50.990Z,10.00
2022-09-16T22:14:18.594Z,10.23
2022-09-16T22:16:46.272Z,11.03
2022-09-16T22:19:17.853Z,12.50
2022-09-16T22:21:49.122Z,14.40
2022-09-16T22:24:19.652Z,11.93
2022-09-16T22:26:49.694Z,13.28
2022-09-16T22:29:17.627Z,9.53
2022-09-16T22:31:45.404Z,10.05
2022-09-16T22:34:12.843Z,12.68
2022-09-16T22:36:41.033Z,14.07
2022-09-16T22:39:15.611Z,11.97
2022-09-16T22:41:43.581Z,11.93
2022-09-16T22:44:12.036Z,10.13
2022-09-16T22:46:43.639Z,13.72
2022-09-16T22:49:11.481Z,11.75
2022-09-16T22:51:39.607Z,11.00
2022-09-16T22:54:08.712Z,15.32
2022-09-16T22:56:36.140Z,10.70
2022-09-16T22:59:06.014Z,10.25
2022-09-16T23:01:38.095Z,9.70
2022-09-16T23:04:07.560Z,17.15
2022-09-16T23:06:36.386Z,13.10
2022-09-16T23:09:05.817Z,12.75
2022-09-16T23:11:35.242Z,11.30
2022-09-16T23:14:03.736Z,9.75
2022-09-16T23:16:37.932Z,9.35
2022-09-16T23:19:09.647Z,8.38
2022-09-16T23:21:37.568Z,8.48
2022-09-16T23:24:07.439Z,10.03
2022-09-16T23:26:37.559Z,8.40
2022-09-16T23:29:08.887Z,8.63
2022-09-16T23:31:40.757Z,13.15
2022-09-16T23:34:19.081Z,12.58
2022-09-16T23:36:47.114Z,8.63
2022-09-16T23:39:16.821Z,7.95
2022-09-16T23:41:45.132Z,7.83
2022-09-16T23:44:14.521Z,6.85
2022-09-16T23:46:42.704Z,4.30
2022-09-16T23:49:10.313Z,5.90
2022-09-16T23:51:37.882Z,8.18
2022-09-16T23:54:05.398Z,5.37
2022-09-16T23:56:33.050Z,7.92
2022-09-16T23:59:00.856Z,8.70
